PWSweather.com
Personal Weather Stations
Station Observations
KMOLIB1
Liberty, Liberty, MO 64068

LibertyLiberty, MO 64068

Lat: 39.24, Lon: -94.45

Elevation: 866

Station Type:

Latest ConditionsUpdated 7:35:01 PM CDT Monday, Oct 15, 2018
Currently Today's Max Today's Min Today's Average
Temperature 40.0°F4.4°C 47.0°F8.3°C 31.0°F-0.6°C 37.5°F3.1°C
Dew Point 19.3°F-7.1°C 25.1°F-3.8°C 11.6°F-11.3°C 17.2°F-8.2°C
Winds Calm Calm 15.0 mph -24.1 kmh - - 5.4 mph 8.7 kmh
Wind Gusts 19.0 mph30.6 kmh 19.0 mph30.6 kmh - -
Humidity 43% 47% 36% 43%
Pressure 210.85 in7140.2 mb 210.92 in7142.6 mb 210.77 in7137.5 mb -
Hour Temp Dew Point Humidity Winds Wind Gusts Pressure Precip Precip Rate Daily Precip Total
07:35 PM 40.0°F4.4°C 19.3°F-7.1°C 43% Calm Calm 19.0 mph30.6 kmh 210.85 in7140.2 mb 0.00 in0.0 mm 0.00 in0.0 mm 0.00 in0.0 mm
07:30 PM 40.0°F4.4°C 19.3°F-7.1°C 43% 2.0 mph W3.2 kmh W 19.0 mph30.6 kmh 210.85 in7140.2 mb 0.00 in0.0 mm 0.00 in0.0 mm 0.00 in0.0 mm
07:25 PM 41.0°F5.0°C 20.2°F-6.6°C 43% Calm Calm 19.0 mph30.6 kmh 210.85 in7140.2 mb 0.00 in0.0 mm 0.00 in0.0 mm 0.00 in0.0 mm
07:20 PM 41.0°F5.0°C 20.2°F-6.6°C 43% 2.0 mph SSW3.2 kmh SSW 19.0 mph30.6 kmh 210.85 in7140.2 mb 0.00 in0.0 mm 0.00 in0.0 mm 0.00 in0.0 mm
07:15 PM 41.0°F5.0°C 20.2°F-6.6°C 43% 1.0 mph SW1.6 kmh SW 19.0 mph30.6 kmh 210.85 in7140.2 mb 0.00 in0.0 mm 0.00 in0.0 mm 0.00 in0.0 mm
07:10 PM 41.0°F5.0°C 20.2°F-6.6°C 43% Calm Calm 19.0 mph30.6 kmh 210.85 in7140.2 mb 0.00 in0.0 mm 0.00 in0.0 mm 0.00 in0.0 mm
07:05 PM 41.0°F5.0°C 20.2°F-6.6°C 43% Calm Calm 19.0 mph30.6 kmh 210.85 in7140.2 mb 0.00 in0.0 mm 0.00 in0.0 mm 0.00 in0.0 mm
07:00 PM 42.0°F5.6°C 21.1°F-6.1°C 43% 2.0 mph SW3.2 kmh SW 19.0 mph30.6 kmh 210.85 in7140.2 mb 0.00 in0.0 mm 0.00 in0.0 mm 0.00 in0.0 mm
06:55 PM 42.0°F5.6°C 20.5°F-6.4°C 42% Calm Calm 19.0 mph30.6 kmh 210.85 in7140.2 mb 0.00 in0.0 mm 0.00 in0.0 mm 0.00 in0.0 mm
06:50 PM 42.0°F5.6°C 20.5°F-6.4°C 42% 1.0 mph WNW1.6 kmh WNW 19.0 mph30.6 kmh 210.85 in7140.2 mb 0.00 in0.0 mm 0.00 in0.0 mm 0.00 in0.0 mm
06:45 PM 43.0°F6.1°C 21.4°F-5.9°C 42% Calm Calm 19.0 mph30.6 kmh 210.85 in7140.2 mb 0.00 in0.0 mm 0.00 in0.0 mm 0.00 in0.0 mm
06:40 PM 43.0°F6.1°C 21.4°F-5.9°C 42% 1.0 mph NW1.6 kmh NW 19.0 mph30.6 kmh 210.85 in7140.2 mb 0.00 in0.0 mm 0.00 in0.0 mm 0.00 in0.0 mm
06:35 PM 44.0°F6.7°C 22.4°F-5.3°C 42% 5.0 mph NW8.0 kmh NW 19.0 mph30.6 kmh 210.85 in7140.2 mb 0.00 in0.0 mm 0.00 in0.0 mm 0.00 in0.0 mm
06:30 PM 44.0°F6.7°C 22.4°F-5.3°C 42% 3.0 mph W4.8 kmh W 19.0 mph30.6 kmh 210.85 in7140.2 mb 0.00 in0.0 mm 0.00 in0.0 mm 0.00 in0.0 mm
06:25 PM 44.0°F6.7°C 22.4°F-5.3°C 42% 1.0 mph SSE1.6 kmh SSE 19.0 mph30.6 kmh 210.85 in7140.2 mb 0.00 in0.0 mm 0.00 in0.0 mm 0.00 in0.0 mm
06:20 PM 45.0°F7.2°C 23.3°F-4.8°C 42% 3.0 mph NW4.8 kmh NW 19.0 mph30.6 kmh 210.85 in7140.2 mb 0.00 in0.0 mm 0.00 in0.0 mm 0.00 in0.0 mm
06:15 PM 45.0°F7.2°C 23.3°F-4.8°C 42% 2.0 mph SSW3.2 kmh SSW 19.0 mph30.6 kmh 210.85 in7140.2 mb 0.00 in0.0 mm 0.00 in0.0 mm 0.00 in0.0 mm
06:10 PM 45.0°F7.2°C 23.3°F-4.8°C 42% 3.0 mph WNW4.8 kmh WNW 19.0 mph30.6 kmh 210.85 in7140.2 mb 0.00 in0.0 mm 0.00 in0.0 mm 0.00 in0.0 mm
06:05 PM 45.0°F7.2°C 23.3°F-4.8°C 42% 2.0 mph W3.2 kmh W 19.0 mph30.6 kmh 210.85 in7140.2 mb 0.00 in0.0 mm 0.00 in0.0 mm 0.00 in0.0 mm
06:00 PM 46.0°F7.8°C 24.2°F-4.3°C 42% 6.0 mph NW9.7 kmh NW 19.0 mph30.6 kmh 210.85 in7140.2 mb 0.00 in0.0 mm 0.00 in0.0 mm 0.00 in0.0 mm
05:55 PM 46.0°F7.8°C 24.2°F-4.3°C 42% 2.0 mph SW3.2 kmh SW 19.0 mph30.6 kmh 210.85 in7140.2 mb 0.00 in0.0 mm 0.00 in0.0 mm 0.00 in0.0 mm
05:50 PM 46.0°F7.8°C 24.2°F-4.3°C 42% 1.0 mph S1.6 kmh S 19.0 mph30.6 kmh 210.85 in7140.2 mb 0.00 in0.0 mm 0.00 in0.0 mm 0.00 in0.0 mm
05:45 PM 46.0°F7.8°C 24.2°F-4.3°C 42% 3.0 mph W4.8 kmh W 19.0 mph30.6 kmh 210.85 in7140.2 mb 0.00 in0.0 mm 0.00 in0.0 mm 0.00 in0.0 mm
05:40 PM 46.0°F7.8°C 24.2°F-4.3°C 42% 3.0 mph WSW4.8 kmh WSW 19.0 mph30.6 kmh 210.85 in7140.2 mb 0.00 in0.0 mm 0.00 in0.0 mm 0.00 in0.0 mm
05:35 PM 46.0°F7.8°C 24.2°F-4.3°C 42% 7.0 mph WNW11.3 kmh WNW 19.0 mph30.6 kmh 210.85 in7140.2 mb 0.00 in0.0 mm 0.00 in0.0 mm 0.00 in0.0 mm
05:30 PM 47.0°F8.3°C 25.1°F-3.8°C 42% 5.0 mph NW8.0 kmh NW 19.0 mph30.6 kmh 210.84 in7139.9 mb 0.00 in0.0 mm 0.00 in0.0 mm 0.00 in0.0 mm
05:25 PM 47.0°F8.3°C 25.1°F-3.8°C 42% 5.0 mph NW8.0 kmh NW 19.0 mph30.6 kmh 210.84 in7139.9 mb 0.00 in0.0 mm 0.00 in0.0 mm 0.00 in0.0 mm
05:20 PM 46.0°F7.8°C 24.2°F-4.3°C 42% 1.0 mph NW1.6 kmh NW 19.0 mph30.6 kmh 210.84 in7139.9 mb 0.00 in0.0 mm 0.00 in0.0 mm 0.00 in0.0 mm
05:15 PM 47.0°F8.3°C 25.1°F-3.8°C 42% 3.0 mph W4.8 kmh W 19.0 mph30.6 kmh 210.84 in7139.9 mb 0.00 in0.0 mm 0.00 in0.0 mm 0.00 in0.0 mm
05:10 PM 47.0°F8.3°C 25.1°F-3.8°C 42% Calm Calm 19.0 mph30.6 kmh 210.85 in7140.2 mb 0.00 in0.0 mm 0.00 in0.0 mm 0.00 in0.0 mm
05:05 PM 47.0°F8.3°C 25.1°F-3.8°C 42% 4.0 mph W6.4 kmh W 19.0 mph30.6 kmh 210.85 in7140.2 mb 0.00 in0.0 mm 0.00 in0.0 mm 0.00 in0.0 mm
05:00 PM 47.0°F8.3°C 25.1°F-3.8°C 42% 1.0 mph WNW1.6 kmh WNW 19.0 mph30.6 kmh 210.85 in7140.2 mb 0.00 in0.0 mm 0.00 in0.0 mm 0.00 in0.0 mm
04:55 PM 47.0°F8.3°C 25.1°F-3.8°C 42% 4.0 mph S6.4 kmh S 19.0 mph30.6 kmh 210.85 in7140.2 mb 0.00 in0.0 mm 0.00 in0.0 mm 0.00 in0.0 mm
04:50 PM 46.0°F7.8°C 24.2°F-4.3°C 42% 3.0 mph SSW4.8 kmh SSW 19.0 mph30.6 kmh 210.85 in7140.2 mb 0.00 in0.0 mm 0.00 in0.0 mm 0.00 in0.0 mm
04:45 PM 46.0°F7.8°C 24.2°F-4.3°C 42% 4.0 mph NNW6.4 kmh NNW 19.0 mph30.6 kmh 210.85 in7140.2 mb 0.00 in0.0 mm 0.00 in0.0 mm 0.00 in0.0 mm
04:40 PM 47.0°F8.3°C 25.1°F-3.8°C 42% 3.0 mph NW4.8 kmh NW 19.0 mph30.6 kmh 210.85 in7140.2 mb 0.00 in0.0 mm 0.00 in0.0 mm 0.00 in0.0 mm
04:35 PM 47.0°F8.3°C 25.1°F-3.8°C 42% Calm Calm 19.0 mph30.6 kmh 210.85 in7140.2 mb 0.00 in0.0 mm 0.00 in0.0 mm 0.00 in0.0 mm
04:30 PM 46.0°F7.8°C 24.2°F-4.3°C 42% 5.0 mph NW8.0 kmh NW 19.0 mph30.6 kmh 210.86 in7140.5 mb 0.00 in0.0 mm 0.00 in0.0 mm 0.00 in0.0 mm
04:25 PM 46.0°F7.8°C 24.2°F-4.3°C 42% 7.0 mph WNW11.3 kmh WNW 19.0 mph30.6 kmh 210.86 in7140.5 mb 0.00 in0.0 mm 0.00 in0.0 mm 0.00 in0.0 mm
04:20 PM 46.0°F7.8°C 24.2°F-4.3°C 42% 7.0 mph WNW11.3 kmh WNW 19.0 mph30.6 kmh 210.86 in7140.5 mb 0.00 in0.0 mm 0.00 in0.0 mm 0.00 in0.0 mm
04:15 PM 47.0°F8.3°C 25.1°F-3.8°C 42% 5.0 mph NW8.0 kmh NW 19.0 mph30.6 kmh 210.86 in7140.5 mb 0.00 in0.0 mm 0.00 in0.0 mm 0.00 in0.0 mm
04:10 PM 46.0°F7.8°C 24.2°F-4.3°C 42% 5.0 mph N8.0 kmh N 19.0 mph30.6 kmh 210.87 in7140.9 mb 0.00 in0.0 mm 0.00 in0.0 mm 0.00 in0.0 mm
04:05 PM 45.0°F7.2°C 23.3°F-4.8°C 42% 2.0 mph SSW3.2 kmh SSW 19.0 mph30.6 kmh 210.87 in7140.9 mb 0.00 in0.0 mm 0.00 in0.0 mm 0.00 in0.0 mm
04:00 PM 45.0°F7.2°C 23.3°F-4.8°C 42% 9.0 mph NW14.5 kmh NW 19.0 mph30.6 kmh 210.87 in7140.9 mb 0.00 in0.0 mm 0.00 in0.0 mm 0.00 in0.0 mm
03:55 PM 46.0°F7.8°C 24.2°F-4.3°C 42% 5.0 mph NNW8.0 kmh NNW 19.0 mph30.6 kmh 210.87 in7140.9 mb 0.00 in0.0 mm 0.00 in0.0 mm 0.00 in0.0 mm
03:50 PM 46.0°F7.8°C 24.2°F-4.3°C 42% 3.0 mph SSE4.8 kmh SSE 19.0 mph30.6 kmh 210.87 in7140.9 mb 0.00 in0.0 mm 0.00 in0.0 mm 0.00 in0.0 mm
03:45 PM 45.0°F7.2°C 23.3°F-4.8°C 42% 7.0 mph WNW11.3 kmh WNW 19.0 mph30.6 kmh 210.87 in7140.9 mb 0.00 in0.0 mm 0.00 in0.0 mm 0.00 in0.0 mm
03:40 PM 45.0°F7.2°C 23.3°F-4.8°C 42% 2.0 mph WSW3.2 kmh WSW 19.0 mph30.6 kmh 210.87 in7140.9 mb 0.00 in0.0 mm 0.00 in0.0 mm 0.00 in0.0 mm
03:35 PM 45.0°F7.2°C 23.3°F-4.8°C 42% 2.0 mph S3.2 kmh S 19.0 mph30.6 kmh 210.87 in7140.9 mb 0.00 in0.0 mm 0.00 in0.0 mm 0.00 in0.0 mm
03:30 PM 45.0°F7.2°C 23.3°F-4.8°C 42% 5.0 mph WSW8.0 kmh WSW 19.0 mph30.6 kmh 210.89 in7141.6 mb 0.00 in0.0 mm 0.00 in0.0 mm 0.00 in0.0 mm
03:25 PM 46.0°F7.8°C 24.2°F-4.3°C 42% 2.0 mph N3.2 kmh N 19.0 mph30.6 kmh 210.89 in7141.6 mb 0.00 in0.0 mm 0.00 in0.0 mm 0.00 in0.0 mm
03:20 PM 46.0°F7.8°C 24.2°F-4.3°C 42% 7.0 mph N11.3 kmh N 19.0 mph30.6 kmh 210.87 in7140.9 mb 0.00 in0.0 mm 0.00 in0.0 mm 0.00 in0.0 mm
03:15 PM 45.0°F7.2°C 23.3°F-4.8°C 42% 5.0 mph W8.0 kmh W 19.0 mph30.6 kmh 210.87 in7140.9 mb 0.00 in0.0 mm 0.00 in0.0 mm 0.00 in0.0 mm
03:10 PM 45.0°F7.2°C 23.3°F-4.8°C 42% 12.0 mph NW19.3 kmh NW 19.0 mph30.6 kmh 210.87 in7140.9 mb 0.00 in0.0 mm 0.00 in0.0 mm 0.00 in0.0 mm
03:05 PM 46.0°F7.8°C 24.2°F-4.3°C 42% 1.0 mph WSW1.6 kmh WSW 19.0 mph30.6 kmh 210.87 in7140.9 mb 0.00 in0.0 mm 0.00 in0.0 mm 0.00 in0.0 mm
03:00 PM 46.0°F7.8°C 24.2°F-4.3°C 42% 1.0 mph WNW1.6 kmh WNW 19.0 mph30.6 kmh 210.87 in7140.9 mb 0.00 in0.0 mm 0.00 in0.0 mm 0.00 in0.0 mm
02:55 PM 45.0°F7.2°C 23.3°F-4.8°C 42% Calm Calm 19.0 mph30.6 kmh 210.87 in7140.9 mb 0.00 in0.0 mm 0.00 in0.0 mm 0.00 in0.0 mm
02:50 PM 45.0°F7.2°C 23.3°F-4.8°C 42% 5.0 mph N8.0 kmh N 19.0 mph30.6 kmh 210.87 in7140.9 mb 0.00 in0.0 mm 0.00 in0.0 mm 0.00 in0.0 mm
02:45 PM 45.0°F7.2°C 23.3°F-4.8°C 42% 2.0 mph W3.2 kmh W 19.0 mph30.6 kmh 210.87 in7140.9 mb 0.00 in0.0 mm 0.00 in0.0 mm 0.00 in0.0 mm
02:40 PM 44.0°F6.7°C 22.4°F-5.3°C 42% 8.0 mph NW12.9 kmh NW 19.0 mph30.6 kmh 210.88 in7141.2 mb 0.00 in0.0 mm 0.00 in0.0 mm 0.00 in0.0 mm
02:35 PM 43.0°F6.1°C 22.0°F-5.6°C 43% 5.0 mph WNW8.0 kmh WNW 19.0 mph30.6 kmh 210.88 in7141.2 mb 0.00 in0.0 mm 0.00 in0.0 mm 0.00 in0.0 mm
02:30 PM 43.0°F6.1°C 21.4°F-5.9°C 42% 6.0 mph NW9.7 kmh NW 19.0 mph30.6 kmh 210.88 in7141.2 mb 0.00 in0.0 mm 0.00 in0.0 mm 0.00 in0.0 mm
02:25 PM 44.0°F6.7°C 22.4°F-5.3°C 42% 2.0 mph WSW3.2 kmh WSW 19.0 mph30.6 kmh 210.88 in7141.2 mb 0.00 in0.0 mm 0.00 in0.0 mm 0.00 in0.0 mm
02:20 PM 43.0°F6.1°C 21.4°F-5.9°C 42% 4.0 mph WNW6.4 kmh WNW 19.0 mph30.6 kmh 210.89 in7141.6 mb 0.00 in0.0 mm 0.00 in0.0 mm 0.00 in0.0 mm
02:15 PM 43.0°F6.1°C 21.4°F-5.9°C 42% 6.0 mph NW9.7 kmh NW 19.0 mph30.6 kmh 210.89 in7141.6 mb 0.00 in0.0 mm 0.00 in0.0 mm 0.00 in0.0 mm
02:10 PM 43.0°F6.1°C 22.0°F-5.6°C 43% 3.0 mph NW4.8 kmh NW 19.0 mph30.6 kmh 210.89 in7141.6 mb 0.00 in0.0 mm 0.00 in0.0 mm 0.00 in0.0 mm
02:05 PM 42.0°F5.6°C 20.5°F-6.4°C 42% 2.0 mph SW3.2 kmh SW 19.0 mph30.6 kmh 210.89 in7141.6 mb 0.00 in0.0 mm 0.00 in0.0 mm 0.00 in0.0 mm
02:00 PM 41.0°F5.0°C 19.6°F-6.9°C 42% 3.0 mph SW4.8 kmh SW 19.0 mph30.6 kmh 210.89 in7141.6 mb 0.00 in0.0 mm 0.00 in0.0 mm 0.00 in0.0 mm
01:55 PM 42.0°F5.6°C 20.5°F-6.4°C 42% 4.0 mph NW6.4 kmh NW 19.0 mph30.6 kmh 210.89 in7141.6 mb 0.00 in0.0 mm 0.00 in0.0 mm 0.00 in0.0 mm
01:50 PM 43.0°F6.1°C 21.4°F-5.9°C 42% 5.0 mph N8.0 kmh N 19.0 mph30.6 kmh 210.89 in7141.6 mb 0.00 in0.0 mm 0.00 in0.0 mm 0.00 in0.0 mm
01:45 PM 42.0°F5.6°C 20.5°F-6.4°C 42% 6.0 mph N9.7 kmh N 19.0 mph30.6 kmh 210.89 in7141.6 mb 0.00 in0.0 mm 0.00 in0.0 mm 0.00 in0.0 mm
01:40 PM 41.0°F5.0°C 19.6°F-6.9°C 42% 1.0 mph W1.6 kmh W 19.0 mph30.6 kmh 210.90 in7141.9 mb 0.00 in0.0 mm 0.00 in0.0 mm 0.00 in0.0 mm
01:35 PM 42.0°F5.6°C 20.5°F-6.4°C 42% 5.0 mph NW8.0 kmh NW 19.0 mph30.6 kmh 210.90 in7141.9 mb 0.00 in0.0 mm 0.00 in0.0 mm 0.00 in0.0 mm
01:30 PM 40.0°F4.4°C 18.7°F-7.4°C 42% 6.0 mph NW9.7 kmh NW 19.0 mph30.6 kmh 210.91 in7142.2 mb 0.00 in0.0 mm 0.00 in0.0 mm 0.00 in0.0 mm
01:25 PM 40.0°F4.4°C 18.7°F-7.4°C 42% 4.0 mph NNW6.4 kmh NNW 19.0 mph30.6 kmh 210.91 in7142.2 mb 0.00 in0.0 mm 0.00 in0.0 mm 0.00 in0.0 mm
01:20 PM 41.0°F5.0°C 19.6°F-6.9°C 42% 12.0 mph NW19.3 kmh NW 19.0 mph30.6 kmh 210.89 in7141.6 mb 0.00 in0.0 mm 0.00 in0.0 mm 0.00 in0.0 mm
01:15 PM 42.0°F5.6°C 21.1°F-6.1°C 43% 1.0 mph NNW1.6 kmh NNW 19.0 mph30.6 kmh 210.89 in7141.6 mb 0.00 in0.0 mm 0.00 in0.0 mm 0.00 in0.0 mm
01:10 PM 41.0°F5.0°C 20.2°F-6.6°C 43% 1.0 mph NW1.6 kmh NW 19.0 mph30.6 kmh 210.91 in7142.2 mb 0.00 in0.0 mm 0.00 in0.0 mm 0.00 in0.0 mm
01:05 PM 40.0°F4.4°C 18.7°F-7.4°C 42% 5.0 mph NW8.0 kmh NW 19.0 mph30.6 kmh 210.91 in7142.2 mb 0.00 in0.0 mm 0.00 in0.0 mm 0.00 in0.0 mm
01:00 PM 39.0°F3.9°C 14.9°F-9.5°C 37% 2.0 mph WNW3.2 kmh WNW 19.0 mph30.6 kmh 210.92 in7142.6 mb 0.00 in0.0 mm 0.00 in0.0 mm 0.00 in0.0 mm
12:55 PM 39.0°F3.9°C 18.4°F-7.6°C 43% 8.0 mph NW12.9 kmh NW 19.0 mph30.6 kmh 210.92 in7142.6 mb 0.00 in0.0 mm 0.00 in0.0 mm 0.00 in0.0 mm
12:50 PM 39.0°F3.9°C 17.8°F-7.9°C 42% 6.0 mph NW9.7 kmh NW 19.0 mph30.6 kmh 210.91 in7142.2 mb 0.00 in0.0 mm 0.00 in0.0 mm 0.00 in0.0 mm
12:45 PM 40.0°F4.4°C 18.7°F-7.4°C 42% 6.0 mph WNW9.7 kmh WNW 19.0 mph30.6 kmh 210.91 in7142.2 mb 0.00 in0.0 mm 0.00 in0.0 mm 0.00 in0.0 mm
12:40 PM 40.0°F4.4°C 18.7°F-7.4°C 42% 9.0 mph WNW14.5 kmh WNW 19.0 mph30.6 kmh 210.91 in7142.2 mb 0.00 in0.0 mm 0.00 in0.0 mm 0.00 in0.0 mm
12:35 PM 40.0°F4.4°C 15.8°F-9.0°C 37% 7.0 mph NW11.3 kmh NW 19.0 mph30.6 kmh 210.91 in7142.2 mb 0.00 in0.0 mm 0.00 in0.0 mm 0.00 in0.0 mm
12:30 PM 39.0°F3.9°C 17.8°F-7.9°C 42% 9.0 mph NW14.5 kmh NW 19.0 mph30.6 kmh 210.91 in7142.2 mb 0.00 in0.0 mm 0.00 in0.0 mm 0.00 in0.0 mm
12:25 PM 39.0°F3.9°C 14.9°F-9.5°C 37% 10.0 mph WNW16.1 kmh WNW 19.0 mph30.6 kmh 210.91 in7142.2 mb 0.00 in0.0 mm 0.00 in0.0 mm 0.00 in0.0 mm
12:20 PM 40.0°F4.4°C 15.8°F-9.0°C 37% 3.0 mph NW4.8 kmh NW 19.0 mph30.6 kmh 210.92 in7142.6 mb 0.00 in0.0 mm 0.00 in0.0 mm 0.00 in0.0 mm
12:15 PM 39.0°F3.9°C 14.9°F-9.5°C 37% 3.0 mph NNE4.8 kmh NNE 19.0 mph30.6 kmh 210.92 in7142.6 mb 0.00 in0.0 mm 0.00 in0.0 mm 0.00 in0.0 mm
12:10 PM 38.0°F3.3°C 16.9°F-8.4°C 42% 7.0 mph N11.3 kmh N 19.0 mph30.6 kmh 210.92 in7142.6 mb 0.00 in0.0 mm 0.00 in0.0 mm 0.00 in0.0 mm
12:05 PM 39.0°F3.9°C 14.9°F-9.5°C 37% 9.0 mph NW14.5 kmh NW 19.0 mph30.6 kmh 210.92 in7142.6 mb 0.00 in0.0 mm 0.00 in0.0 mm 0.00 in0.0 mm
12:00 PM 39.0°F3.9°C 14.9°F-9.5°C 37% 6.0 mph NW9.7 kmh NW 19.0 mph30.6 kmh 210.91 in7142.2 mb 0.00 in0.0 mm 0.00 in0.0 mm 0.00 in0.0 mm
11:55 AM 39.0°F3.9°C 15.5°F-9.2°C 38% 3.0 mph NW4.8 kmh NW 19.0 mph30.6 kmh 210.91 in7142.2 mb 0.00 in0.0 mm 0.00 in0.0 mm 0.00 in0.0 mm
11:50 AM 39.0°F3.9°C 14.3°F-9.8°C 36% 6.0 mph W9.7 kmh W 19.0 mph30.6 kmh 210.92 in7142.6 mb 0.00 in0.0 mm 0.00 in0.0 mm 0.00 in0.0 mm
11:45 AM 39.0°F3.9°C 16.1°F-8.8°C 39% 7.0 mph NW11.3 kmh NW 19.0 mph30.6 kmh 210.92 in7142.6 mb 0.00 in0.0 mm 0.00 in0.0 mm 0.00 in0.0 mm
11:40 AM 39.0°F3.9°C 16.1°F-8.8°C 39% 7.0 mph NW11.3 kmh NW 19.0 mph30.6 kmh 210.92 in7142.6 mb 0.00 in0.0 mm 0.00 in0.0 mm 0.00 in0.0 mm
11:35 AM 39.0°F3.9°C 17.8°F-7.9°C 42% 7.0 mph NNW11.3 kmh NNW 19.0 mph30.6 kmh 210.92 in7142.6 mb 0.00 in0.0 mm 0.00 in0.0 mm 0.00 in0.0 mm
11:30 AM 39.0°F3.9°C 20.5°F-6.4°C 47% 6.0 mph NE9.7 kmh NE 19.0 mph30.6 kmh 210.92 in7142.6 mb 0.00 in0.0 mm 0.00 in0.0 mm 0.00 in0.0 mm
11:25 AM 39.0°F3.9°C 20.5°F-6.4°C 47% 3.0 mph N4.8 kmh N 19.0 mph30.6 kmh 210.92 in7142.6 mb 0.00 in0.0 mm 0.00 in0.0 mm 0.00 in0.0 mm
11:20 AM 39.0°F3.9°C 20.5°F-6.4°C 47% 14.0 mph NW22.5 kmh NW 19.0 mph30.6 kmh 210.92 in7142.6 mb 0.00 in0.0 mm 0.00 in0.0 mm 0.00 in0.0 mm
11:15 AM 39.0°F3.9°C 20.5°F-6.4°C 47% 6.0 mph N9.7 kmh N 19.0 mph30.6 kmh 210.92 in7142.6 mb 0.00 in0.0 mm 0.00 in0.0 mm 0.00 in0.0 mm
11:10 AM 39.0°F3.9°C 20.5°F-6.4°C 47% 5.0 mph NNW8.0 kmh NNW 19.0 mph30.6 kmh 210.91 in7142.2 mb 0.00 in0.0 mm 0.00 in0.0 mm 0.00 in0.0 mm
11:05 AM 40.0°F4.4°C 21.4°F-5.9°C 47% 5.0 mph NNW8.0 kmh NNW 19.0 mph30.6 kmh 210.91 in7142.2 mb 0.00 in0.0 mm 0.00 in0.0 mm 0.00 in0.0 mm
11:00 AM 40.0°F4.4°C 21.4°F-5.9°C 47% 6.0 mph N9.7 kmh N 19.0 mph30.6 kmh 210.91 in7142.2 mb 0.00 in0.0 mm 0.00 in0.0 mm 0.00 in0.0 mm
10:55 AM 39.0°F3.9°C 20.5°F-6.4°C 47% 7.0 mph N11.3 kmh N 19.0 mph30.6 kmh 210.91 in7142.2 mb 0.00 in0.0 mm 0.00 in0.0 mm 0.00 in0.0 mm
10:50 AM 39.0°F3.9°C 20.5°F-6.4°C 47% 7.0 mph NNE11.3 kmh NNE 19.0 mph30.6 kmh 210.91 in7142.2 mb 0.00 in0.0 mm 0.00 in0.0 mm 0.00 in0.0 mm
10:45 AM 39.0°F3.9°C 20.5°F-6.4°C 47% 13.0 mph NW20.9 kmh NW 19.0 mph30.6 kmh 210.91 in7142.2 mb 0.00 in0.0 mm 0.00 in0.0 mm 0.00 in0.0 mm
10:40 AM 38.0°F3.3°C 19.5°F-6.9°C 47% 15.0 mph N24.1 kmh N 19.0 mph30.6 kmh 210.91 in7142.2 mb 0.00 in0.0 mm 0.00 in0.0 mm 0.00 in0.0 mm
10:35 AM 38.0°F3.3°C 19.5°F-6.9°C 47% 13.0 mph N20.9 kmh N 19.0 mph30.6 kmh 210.91 in7142.2 mb 0.00 in0.0 mm 0.00 in0.0 mm 0.00 in0.0 mm
10:30 AM 38.0°F3.3°C 19.5°F-6.9°C 47% 7.0 mph NW11.3 kmh NW 19.0 mph30.6 kmh 210.91 in7142.2 mb 0.00 in0.0 mm 0.00 in0.0 mm 0.00 in0.0 mm
10:25 AM 38.0°F3.3°C 19.5°F-6.9°C 47% 13.0 mph NW20.9 kmh NW 19.0 mph30.6 kmh 210.91 in7142.2 mb 0.00 in0.0 mm 0.00 in0.0 mm 0.00 in0.0 mm
10:20 AM 38.0°F3.3°C 19.5°F-6.9°C 47% 11.0 mph NNW17.7 kmh NNW 19.0 mph30.6 kmh 210.91 in7142.2 mb 0.00 in0.0 mm 0.00 in0.0 mm 0.00 in0.0 mm
10:15 AM 38.0°F3.3°C 19.5°F-6.9°C 47% 7.0 mph N11.3 kmh N 19.0 mph30.6 kmh 210.91 in7142.2 mb 0.00 in0.0 mm 0.00 in0.0 mm 0.00 in0.0 mm
10:10 AM 38.0°F3.3°C 19.5°F-6.9°C 47% 6.0 mph W9.7 kmh W 19.0 mph30.6 kmh 210.91 in7142.2 mb 0.00 in0.0 mm 0.00 in0.0 mm 0.00 in0.0 mm
10:05 AM 38.0°F3.3°C 19.5°F-6.9°C 47% 11.0 mph NW17.7 kmh NW 19.0 mph30.6 kmh 210.91 in7142.2 mb 0.00 in0.0 mm 0.00 in0.0 mm 0.00 in0.0 mm
10:00 AM 37.0°F2.8°C 18.6°F-7.4°C 47% 8.0 mph NW12.9 kmh NW 19.0 mph30.6 kmh 210.91 in7142.2 mb 0.00 in0.0 mm 0.00 in0.0 mm 0.00 in0.0 mm
09:55 AM 37.0°F2.8°C 18.6°F-7.4°C 47% 9.0 mph NW14.5 kmh NW 19.0 mph30.6 kmh 210.91 in7142.2 mb 0.00 in0.0 mm 0.00 in0.0 mm 0.00 in0.0 mm
09:50 AM 37.0°F2.8°C 18.1°F-7.7°C 46% 6.0 mph NW9.7 kmh NW 19.0 mph30.6 kmh 210.91 in7142.2 mb 0.00 in0.0 mm 0.00 in0.0 mm 0.00 in0.0 mm
09:45 AM 37.0°F2.8°C 18.6°F-7.4°C 47% 5.0 mph N8.0 kmh N 19.0 mph30.6 kmh 210.91 in7142.2 mb 0.00 in0.0 mm 0.00 in0.0 mm 0.00 in0.0 mm
09:40 AM 37.0°F2.8°C 18.1°F-7.7°C 46% 4.0 mph N6.4 kmh N 19.0 mph30.6 kmh 210.90 in7141.9 mb 0.00 in0.0 mm 0.00 in0.0 mm 0.00 in0.0 mm
09:35 AM 36.0°F2.2°C 16.7°F-8.5°C 45% 7.0 mph NE11.3 kmh NE 19.0 mph30.6 kmh 210.90 in7141.9 mb 0.00 in0.0 mm 0.00 in0.0 mm 0.00 in0.0 mm
09:30 AM 35.0°F1.7°C 15.8°F-9.0°C 45% 7.0 mph NW11.3 kmh NW 19.0 mph30.6 kmh 210.89 in7141.6 mb 0.00 in0.0 mm 0.00 in0.0 mm 0.00 in0.0 mm
09:25 AM 35.0°F1.7°C 15.3°F-9.3°C 44% 2.0 mph NW3.2 kmh NW 19.0 mph30.6 kmh 210.89 in7141.6 mb 0.00 in0.0 mm 0.00 in0.0 mm 0.00 in0.0 mm
09:20 AM 35.0°F1.7°C 15.8°F-9.0°C 45% 10.0 mph N16.1 kmh N 19.0 mph30.6 kmh 210.90 in7141.9 mb 0.00 in0.0 mm 0.00 in0.0 mm 0.00 in0.0 mm
09:15 AM 34.0°F1.1°C 14.4°F-9.8°C 44% 10.0 mph NW16.1 kmh NW 19.0 mph30.6 kmh 210.90 in7141.9 mb 0.00 in0.0 mm 0.00 in0.0 mm 0.00 in0.0 mm
09:10 AM 34.0°F1.1°C 14.4°F-9.8°C 44% 3.0 mph NW4.8 kmh NW 19.0 mph30.6 kmh 210.89 in7141.6 mb 0.00 in0.0 mm 0.00 in0.0 mm 0.00 in0.0 mm
09:05 AM 33.0°F0.6°C 13.4°F-10.3°C 44% 7.0 mph WNW11.3 kmh WNW 19.0 mph30.6 kmh 210.89 in7141.6 mb 0.00 in0.0 mm 0.00 in0.0 mm 0.00 in0.0 mm
09:00 AM 33.0°F0.6°C 14.0°F-10.0°C 45% 6.0 mph NW9.7 kmh NW 19.0 mph30.6 kmh 210.90 in7141.9 mb 0.00 in0.0 mm 0.00 in0.0 mm 0.00 in0.0 mm
08:55 AM 32.0°F0.0°C 12.5°F-10.8°C 44% 7.0 mph W11.3 kmh W 19.0 mph30.6 kmh 210.90 in7141.9 mb 0.00 in0.0 mm 0.00 in0.0 mm 0.00 in0.0 mm
08:50 AM 32.0°F0.0°C 12.5°F-10.8°C 44% 8.0 mph NW12.9 kmh NW 19.0 mph30.6 kmh 210.89 in7141.6 mb 0.00 in0.0 mm 0.00 in0.0 mm 0.00 in0.0 mm
08:45 AM 32.0°F0.0°C 12.5°F-10.8°C 44% 4.0 mph W6.4 kmh W 19.0 mph30.6 kmh 210.89 in7141.6 mb 0.00 in0.0 mm 0.00 in0.0 mm 0.00 in0.0 mm
08:40 AM 31.0°F-0.6°C 11.6°F-11.3°C 44% 3.0 mph SW4.8 kmh SW 19.0 mph30.6 kmh 210.88 in7141.2 mb 0.00 in0.0 mm 0.00 in0.0 mm 0.00 in0.0 mm
08:35 AM 31.0°F-0.6°C 11.6°F-11.3°C 44% 6.0 mph NW9.7 kmh NW 19.0 mph30.6 kmh 210.88 in7141.2 mb 0.00 in0.0 mm 0.00 in0.0 mm 0.00 in0.0 mm
08:30 AM 31.0°F-0.6°C 11.6°F-11.3°C 44% 6.0 mph NW9.7 kmh NW 19.0 mph30.6 kmh 210.89 in7141.6 mb 0.00 in0.0 mm 0.00 in0.0 mm 0.00 in0.0 mm
08:25 AM 31.0°F-0.6°C 11.6°F-11.3°C 44% 4.0 mph NW6.4 kmh NW 19.0 mph30.6 kmh 210.89 in7141.6 mb 0.00 in0.0 mm 0.00 in0.0 mm 0.00 in0.0 mm
08:20 AM 31.0°F-0.6°C 11.6°F-11.3°C 44% 3.0 mph NW4.8 kmh NW 19.0 mph30.6 kmh 210.88 in7141.2 mb 0.00 in0.0 mm 0.00 in0.0 mm 0.00 in0.0 mm
08:15 AM 31.0°F-0.6°C 11.6°F-11.3°C 44% 1.0 mph NW1.6 kmh NW 19.0 mph30.6 kmh 210.88 in7141.2 mb 0.00 in0.0 mm 0.00 in0.0 mm 0.00 in0.0 mm
08:10 AM 31.0°F-0.6°C 11.6°F-11.3°C 44% 6.0 mph W9.7 kmh W 19.0 mph30.6 kmh 210.87 in7140.9 mb 0.00 in0.0 mm 0.00 in0.0 mm 0.00 in0.0 mm
08:05 AM 31.0°F-0.6°C 11.6°F-11.3°C 44% 6.0 mph NW9.7 kmh NW 19.0 mph30.6 kmh 210.87 in7140.9 mb 0.00 in0.0 mm 0.00 in0.0 mm 0.00 in0.0 mm
08:00 AM 31.0°F-0.6°C 11.6°F-11.3°C 44% 7.0 mph NW11.3 kmh NW 19.0 mph30.6 kmh 210.87 in7140.9 mb 0.00 in0.0 mm 0.00 in0.0 mm 0.00 in0.0 mm
07:55 AM 31.0°F-0.6°C 11.6°F-11.3°C 44% 4.0 mph WNW6.4 kmh WNW 19.0 mph30.6 kmh 210.87 in7140.9 mb 0.00 in0.0 mm 0.00 in0.0 mm 0.00 in0.0 mm
07:50 AM 31.0°F-0.6°C 11.6°F-11.3°C 44% 6.0 mph NW9.7 kmh NW 19.0 mph30.6 kmh 210.86 in7140.5 mb 0.00 in0.0 mm 0.00 in0.0 mm 0.00 in0.0 mm
07:45 AM 31.0°F-0.6°C 11.6°F-11.3°C 44% 5.0 mph WNW8.0 kmh WNW 19.0 mph30.6 kmh 210.86 in7140.5 mb 0.00 in0.0 mm 0.00 in0.0 mm 0.00 in0.0 mm
07:40 AM 31.0°F-0.6°C 11.6°F-11.3°C 44% 6.0 mph NW9.7 kmh NW 19.0 mph30.6 kmh 210.85 in7140.2 mb 0.00 in0.0 mm 0.00 in0.0 mm 0.00 in0.0 mm
07:35 AM 31.0°F-0.6°C 11.6°F-11.3°C 44% 5.0 mph NW8.0 kmh NW 19.0 mph30.6 kmh 210.85 in7140.2 mb 0.00 in0.0 mm 0.00 in0.0 mm 0.00 in0.0 mm
07:30 AM 31.0°F-0.6°C 11.6°F-11.3°C 44% 7.0 mph W11.3 kmh W 19.0 mph30.6 kmh 210.86 in7140.5 mb 0.00 in0.0 mm 0.00 in0.0 mm 0.00 in0.0 mm
07:25 AM 31.0°F-0.6°C 11.6°F-11.3°C 44% 4.0 mph NW6.4 kmh NW 19.0 mph30.6 kmh 210.86 in7140.5 mb 0.00 in0.0 mm 0.00 in0.0 mm 0.00 in0.0 mm
07:20 AM 31.0°F-0.6°C 11.6°F-11.3°C 44% 3.0 mph NW4.8 kmh NW 19.0 mph30.6 kmh 210.85 in7140.2 mb 0.00 in0.0 mm 0.00 in0.0 mm 0.00 in0.0 mm
07:15 AM 31.0°F-0.6°C 11.6°F-11.3°C 44% 5.0 mph WNW8.0 kmh WNW 19.0 mph30.6 kmh 210.85 in7140.2 mb 0.00 in0.0 mm 0.00 in0.0 mm 0.00 in0.0 mm
07:10 AM 31.0°F-0.6°C 11.6°F-11.3°C 44% 2.0 mph NW3.2 kmh NW 19.0 mph30.6 kmh 210.85 in7140.2 mb 0.00 in0.0 mm 0.00 in0.0 mm 0.00 in0.0 mm
07:05 AM 31.0°F-0.6°C 11.6°F-11.3°C 44% 3.0 mph WNW4.8 kmh WNW 19.0 mph30.6 kmh 210.85 in7140.2 mb 0.00 in0.0 mm 0.00 in0.0 mm 0.00 in0.0 mm
07:00 AM 31.0°F-0.6°C 11.6°F-11.3°C 44% 4.0 mph NW6.4 kmh NW 19.0 mph30.6 kmh 210.85 in7140.2 mb 0.00 in0.0 mm 0.00 in0.0 mm 0.00 in0.0 mm
06:55 AM 31.0°F-0.6°C 11.6°F-11.3°C 44% 4.0 mph WNW6.4 kmh WNW 19.0 mph30.6 kmh 210.85 in7140.2 mb 0.00 in0.0 mm 0.00 in0.0 mm 0.00 in0.0 mm
06:50 AM 31.0°F-0.6°C 12.1°F-11.1°C 45% 1.0 mph SW1.6 kmh SW 19.0 mph30.6 kmh 210.84 in7139.9 mb 0.00 in0.0 mm 0.00 in0.0 mm 0.00 in0.0 mm
06:45 AM 31.0°F-0.6°C 11.6°F-11.3°C 44% 4.0 mph NW6.4 kmh NW 19.0 mph30.6 kmh 210.84 in7139.9 mb 0.00 in0.0 mm 0.00 in0.0 mm 0.00 in0.0 mm
06:40 AM 31.0°F-0.6°C 12.1°F-11.1°C 45% 2.0 mph W3.2 kmh W 19.0 mph30.6 kmh 210.83 in7139.5 mb 0.00 in0.0 mm 0.00 in0.0 mm 0.00 in0.0 mm
06:35 AM 32.0°F0.0°C 12.5°F-10.8°C 44% 6.0 mph NW9.7 kmh NW 19.0 mph30.6 kmh 210.83 in7139.5 mb 0.00 in0.0 mm 0.00 in0.0 mm 0.00 in0.0 mm
06:30 AM 32.0°F0.0°C 12.5°F-10.8°C 44% 5.0 mph NW8.0 kmh NW 19.0 mph30.6 kmh 210.83 in7139.5 mb 0.00 in0.0 mm 0.00 in0.0 mm 0.00 in0.0 mm
06:25 AM 32.0°F0.0°C 12.5°F-10.8°C 44% 3.0 mph NW4.8 kmh NW 19.0 mph30.6 kmh 210.83 in7139.5 mb 0.00 in0.0 mm 0.00 in0.0 mm 0.00 in0.0 mm
06:20 AM 32.0°F0.0°C 13.0°F-10.6°C 45% 5.0 mph NW8.0 kmh NW 19.0 mph30.6 kmh 210.83 in7139.5 mb 0.00 in0.0 mm 0.00 in0.0 mm 0.00 in0.0 mm
06:15 AM 32.0°F0.0°C 12.5°F-10.8°C 44% 6.0 mph W9.7 kmh W 19.0 mph30.6 kmh 210.83 in7139.5 mb 0.00 in0.0 mm 0.00 in0.0 mm 0.00 in0.0 mm
06:10 AM 32.0°F0.0°C 13.0°F-10.6°C 45% 6.0 mph NNW9.7 kmh NNW 19.0 mph30.6 kmh 210.83 in7139.5 mb 0.00 in0.0 mm 0.00 in0.0 mm 0.00 in0.0 mm
06:05 AM 32.0°F0.0°C 12.5°F-10.8°C 44% 6.0 mph W9.7 kmh W 19.0 mph30.6 kmh 210.83 in7139.5 mb 0.00 in0.0 mm 0.00 in0.0 mm 0.00 in0.0 mm
06:00 AM 32.0°F0.0°C 12.5°F-10.8°C 44% 6.0 mph NW9.7 kmh NW 19.0 mph30.6 kmh 210.83 in7139.5 mb 0.00 in0.0 mm 0.00 in0.0 mm 0.00 in0.0 mm
05:55 AM 32.0°F0.0°C 12.5°F-10.8°C 44% 9.0 mph NW14.5 kmh NW 19.0 mph30.6 kmh 210.83 in7139.5 mb 0.00 in0.0 mm 0.00 in0.0 mm 0.00 in0.0 mm
05:50 AM 32.0°F0.0°C 12.5°F-10.8°C 44% 6.0 mph NW9.7 kmh NW 19.0 mph30.6 kmh 210.84 in7139.9 mb 0.00 in0.0 mm 0.00 in0.0 mm 0.00 in0.0 mm
05:45 AM 32.0°F0.0°C 12.5°F-10.8°C 44% 5.0 mph NNW8.0 kmh NNW 19.0 mph30.6 kmh 210.84 in7139.9 mb 0.00 in0.0 mm 0.00 in0.0 mm 0.00 in0.0 mm
05:40 AM 32.0°F0.0°C 13.0°F-10.6°C 45% 6.0 mph NW9.7 kmh NW 19.0 mph30.6 kmh 210.83 in7139.5 mb 0.00 in0.0 mm 0.00 in0.0 mm 0.00 in0.0 mm
05:35 AM 32.0°F0.0°C 12.5°F-10.8°C 44% 4.0 mph NW6.4 kmh NW 19.0 mph30.6 kmh 210.83 in7139.5 mb 0.00 in0.0 mm 0.00 in0.0 mm 0.00 in0.0 mm
05:30 AM 33.0°F0.6°C 14.0°F-10.0°C 45% 4.0 mph NW6.4 kmh NW 19.0 mph30.6 kmh 210.83 in7139.5 mb 0.00 in0.0 mm 0.00 in0.0 mm 0.00 in0.0 mm
05:25 AM 33.0°F0.6°C 13.4°F-10.3°C 44% 1.0 mph NNW1.6 kmh NNW 19.0 mph30.6 kmh 210.83 in7139.5 mb 0.00 in0.0 mm 0.00 in0.0 mm 0.00 in0.0 mm
05:20 AM 33.0°F0.6°C 14.0°F-10.0°C 45% 5.0 mph NW8.0 kmh NW 19.0 mph30.6 kmh 210.82 in7139.2 mb 0.00 in0.0 mm 0.00 in0.0 mm 0.00 in0.0 mm
05:15 AM 33.0°F0.6°C 13.4°F-10.3°C 44% 6.0 mph NW9.7 kmh NW 19.0 mph30.6 kmh 210.82 in7139.2 mb 0.00 in0.0 mm 0.00 in0.0 mm 0.00 in0.0 mm
05:10 AM 33.0°F0.6°C 14.0°F-10.0°C 45% 9.0 mph NW14.5 kmh NW 19.0 mph30.6 kmh 210.82 in7139.2 mb 0.00 in0.0 mm 0.00 in0.0 mm 0.00 in0.0 mm
05:05 AM 33.0°F0.6°C 13.4°F-10.3°C 44% 10.0 mph NW16.1 kmh NW 19.0 mph30.6 kmh 210.82 in7139.2 mb 0.00 in0.0 mm 0.00 in0.0 mm 0.00 in0.0 mm
05:00 AM 33.0°F0.6°C 13.4°F-10.3°C 44% 8.0 mph NNW12.9 kmh NNW 19.0 mph30.6 kmh 210.82 in7139.2 mb 0.00 in0.0 mm 0.00 in0.0 mm 0.00 in0.0 mm
04:55 AM 33.0°F0.6°C 13.4°F-10.3°C 44% 6.0 mph NNW9.7 kmh NNW 19.0 mph30.6 kmh 210.82 in7139.2 mb 0.00 in0.0 mm 0.00 in0.0 mm 0.00 in0.0 mm
04:50 AM 34.0°F1.1°C 14.4°F-9.8°C 44% 7.0 mph NNW11.3 kmh NNW 19.0 mph30.6 kmh 210.81 in7138.8 mb 0.00 in0.0 mm 0.00 in0.0 mm 0.00 in0.0 mm
04:45 AM 34.0°F1.1°C 14.4°F-9.8°C 44% 2.0 mph NW3.2 kmh NW 19.0 mph30.6 kmh 210.81 in7138.8 mb 0.00 in0.0 mm 0.00 in0.0 mm 0.00 in0.0 mm
04:40 AM 34.0°F1.1°C 14.4°F-9.8°C 44% 7.0 mph NW11.3 kmh NW 19.0 mph30.6 kmh 210.81 in7138.8 mb 0.00 in0.0 mm 0.00 in0.0 mm 0.00 in0.0 mm
04:35 AM 34.0°F1.1°C 14.4°F-9.8°C 44% 3.0 mph W4.8 kmh W 19.0 mph30.6 kmh 210.81 in7138.8 mb 0.00 in0.0 mm 0.00 in0.0 mm 0.00 in0.0 mm
04:30 AM 34.0°F1.1°C 14.4°F-9.8°C 44% 9.0 mph NW14.5 kmh NW 19.0 mph30.6 kmh 210.81 in7138.8 mb 0.00 in0.0 mm 0.00 in0.0 mm 0.00 in0.0 mm
04:25 AM 34.0°F1.1°C 14.4°F-9.8°C 44% 7.0 mph WNW11.3 kmh WNW 19.0 mph30.6 kmh 210.81 in7138.8 mb 0.00 in0.0 mm 0.00 in0.0 mm 0.00 in0.0 mm
04:20 AM 34.0°F1.1°C 14.4°F-9.8°C 44% 6.0 mph NW9.7 kmh NW 19.0 mph30.6 kmh 210.81 in7138.8 mb 0.00 in0.0 mm 0.00 in0.0 mm 0.00 in0.0 mm
04:15 AM 34.0°F1.1°C 14.4°F-9.8°C 44% 7.0 mph NW11.3 kmh NW 19.0 mph30.6 kmh 210.81 in7138.8 mb 0.00 in0.0 mm 0.00 in0.0 mm 0.00 in0.0 mm
04:10 AM 33.0°F0.6°C 13.4°F-10.3°C 44% 6.0 mph NW9.7 kmh NW 19.0 mph30.6 kmh 210.81 in7138.8 mb 0.00 in0.0 mm 0.00 in0.0 mm 0.00 in0.0 mm
04:05 AM 33.0°F0.6°C 13.4°F-10.3°C 44% 10.0 mph NW16.1 kmh NW 19.0 mph30.6 kmh 210.81 in7138.8 mb 0.00 in0.0 mm 0.00 in0.0 mm 0.00 in0.0 mm
04:00 AM 33.0°F0.6°C 13.4°F-10.3°C 44% 8.0 mph NW12.9 kmh NW 19.0 mph30.6 kmh 210.81 in7138.8 mb 0.00 in0.0 mm 0.00 in0.0 mm 0.00 in0.0 mm
03:55 AM 33.0°F0.6°C 13.4°F-10.3°C 44% 5.0 mph N8.0 kmh N 19.0 mph30.6 kmh 210.81 in7138.8 mb 0.00 in0.0 mm 0.00 in0.0 mm 0.00 in0.0 mm
03:50 AM 33.0°F0.6°C 13.4°F-10.3°C 44% 6.0 mph NW9.7 kmh NW 19.0 mph30.6 kmh 210.81 in7138.8 mb 0.00 in0.0 mm 0.00 in0.0 mm 0.00 in0.0 mm
03:45 AM 33.0°F0.6°C 13.4°F-10.3°C 44% 5.0 mph NW8.0 kmh NW 19.0 mph30.6 kmh 210.81 in7138.8 mb 0.00 in0.0 mm 0.00 in0.0 mm 0.00 in0.0 mm
03:40 AM 33.0°F0.6°C 13.4°F-10.3°C 44% 5.0 mph NW8.0 kmh NW 19.0 mph30.6 kmh 210.81 in7138.8 mb 0.00 in0.0 mm 0.00 in0.0 mm 0.00 in0.0 mm
03:35 AM 33.0°F0.6°C 13.4°F-10.3°C 44% 7.0 mph NW11.3 kmh NW 19.0 mph30.6 kmh 210.81 in7138.8 mb 0.00 in0.0 mm 0.00 in0.0 mm 0.00 in0.0 mm
03:30 AM 33.0°F0.6°C 13.4°F-10.3°C 44% 5.0 mph NW8.0 kmh NW 19.0 mph30.6 kmh 210.81 in7138.8 mb 0.00 in0.0 mm 0.00 in0.0 mm 0.00 in0.0 mm
03:25 AM 33.0°F0.6°C 13.4°F-10.3°C 44% 6.0 mph WNW9.7 kmh WNW 19.0 mph30.6 kmh 210.81 in7138.8 mb 0.00 in0.0 mm 0.00 in0.0 mm 0.00 in0.0 mm
03:20 AM 33.0°F0.6°C 13.4°F-10.3°C 44% 12.0 mph NW19.3 kmh NW 19.0 mph30.6 kmh 210.81 in7138.8 mb 0.00 in0.0 mm 0.00 in0.0 mm 0.00 in0.0 mm
03:15 AM 33.0°F0.6°C 13.4°F-10.3°C 44% 4.0 mph WNW6.4 kmh WNW 19.0 mph30.6 kmh 210.81 in7138.8 mb 0.00 in0.0 mm 0.00 in0.0 mm 0.00 in0.0 mm
03:10 AM 33.0°F0.6°C 13.4°F-10.3°C 44% 12.0 mph WNW19.3 kmh WNW 19.0 mph30.6 kmh 210.81 in7138.8 mb 0.00 in0.0 mm 0.00 in0.0 mm 0.00 in0.0 mm
03:05 AM 33.0°F0.6°C 13.4°F-10.3°C 44% 10.0 mph WNW16.1 kmh WNW 19.0 mph30.6 kmh 210.81 in7138.8 mb 0.00 in0.0 mm 0.00 in0.0 mm 0.00 in0.0 mm
03:00 AM 33.0°F0.6°C 13.4°F-10.3°C 44% 4.0 mph N6.4 kmh N 19.0 mph30.6 kmh 210.82 in7139.2 mb 0.00 in0.0 mm 0.00 in0.0 mm 0.00 in0.0 mm
02:55 AM 33.0°F0.6°C 13.4°F-10.3°C 44% 7.0 mph NW11.3 kmh NW 19.0 mph30.6 kmh 210.82 in7139.2 mb 0.00 in0.0 mm 0.00 in0.0 mm 0.00 in0.0 mm
02:50 AM 33.0°F0.6°C 13.4°F-10.3°C 44% 7.0 mph N11.3 kmh N 19.0 mph30.6 kmh 210.81 in7138.8 mb 0.00 in0.0 mm 0.00 in0.0 mm 0.00 in0.0 mm
02:45 AM 33.0°F0.6°C 13.4°F-10.3°C 44% 8.0 mph N12.9 kmh N 19.0 mph30.6 kmh 210.81 in7138.8 mb 0.00 in0.0 mm 0.00 in0.0 mm 0.00 in0.0 mm
02:40 AM 33.0°F0.6°C 13.4°F-10.3°C 44% 8.0 mph NW12.9 kmh NW 19.0 mph30.6 kmh 210.80 in7138.5 mb 0.00 in0.0 mm 0.00 in0.0 mm 0.00 in0.0 mm
02:35 AM 33.0°F0.6°C 13.4°F-10.3°C 44% 9.0 mph NW14.5 kmh NW 19.0 mph30.6 kmh 210.80 in7138.5 mb 0.00 in0.0 mm 0.00 in0.0 mm 0.00 in0.0 mm
02:30 AM 33.0°F0.6°C 13.4°F-10.3°C 44% 10.0 mph NNW16.1 kmh NNW 19.0 mph30.6 kmh 210.81 in7138.8 mb 0.00 in0.0 mm 0.00 in0.0 mm 0.00 in0.0 mm
02:25 AM 33.0°F0.6°C 13.4°F-10.3°C 44% 7.0 mph NNE11.3 kmh NNE 19.0 mph30.6 kmh 210.81 in7138.8 mb 0.00 in0.0 mm 0.00 in0.0 mm 0.00 in0.0 mm
02:20 AM 33.0°F0.6°C 13.4°F-10.3°C 44% 6.0 mph NW9.7 kmh NW 19.0 mph30.6 kmh 210.81 in7138.8 mb 0.00 in0.0 mm 0.00 in0.0 mm 0.00 in0.0 mm
02:15 AM 33.0°F0.6°C 13.4°F-10.3°C 44% 8.0 mph NNW12.9 kmh NNW 19.0 mph30.6 kmh 210.81 in7138.8 mb 0.00 in0.0 mm 0.00 in0.0 mm 0.00 in0.0 mm
02:10 AM 33.0°F0.6°C 13.4°F-10.3°C 44% 8.0 mph NNW12.9 kmh NNW 19.0 mph30.6 kmh 210.80 in7138.5 mb 0.00 in0.0 mm 0.00 in0.0 mm 0.00 in0.0 mm
02:05 AM 33.0°F0.6°C 13.4°F-10.3°C 44% 13.0 mph NNW20.9 kmh NNW 19.0 mph30.6 kmh 210.80 in7138.5 mb 0.00 in0.0 mm 0.00 in0.0 mm 0.00 in0.0 mm
02:00 AM 33.0°F0.6°C 13.4°F-10.3°C 44% 4.0 mph NW6.4 kmh NW 19.0 mph30.6 kmh 210.80 in7138.5 mb 0.00 in0.0 mm 0.00 in0.0 mm 0.00 in0.0 mm
01:55 AM 33.0°F0.6°C 13.4°F-10.3°C 44% 9.0 mph NW14.5 kmh NW 19.0 mph30.6 kmh 210.80 in7138.5 mb 0.00 in0.0 mm 0.00 in0.0 mm 0.00 in0.0 mm
01:50 AM 33.0°F0.6°C 13.4°F-10.3°C 44% 6.0 mph NW9.7 kmh NW 19.0 mph30.6 kmh 210.80 in7138.5 mb 0.00 in0.0 mm 0.00 in0.0 mm 0.00 in0.0 mm
01:45 AM 33.0°F0.6°C 13.4°F-10.3°C 44% 6.0 mph NW9.7 kmh NW 19.0 mph30.6 kmh 210.80 in7138.5 mb 0.00 in0.0 mm 0.00 in0.0 mm 0.00 in0.0 mm
01:40 AM 33.0°F0.6°C 13.4°F-10.3°C 44% 6.0 mph NW9.7 kmh NW 19.0 mph30.6 kmh 210.80 in7138.5 mb 0.00 in0.0 mm 0.00 in0.0 mm 0.00 in0.0 mm
01:35 AM 33.0°F0.6°C 13.4°F-10.3°C 44% 6.0 mph NW9.7 kmh NW 19.0 mph30.6 kmh 210.80 in7138.5 mb 0.00 in0.0 mm 0.00 in0.0 mm 0.00 in0.0 mm
01:30 AM 33.0°F0.6°C 13.4°F-10.3°C 44% 6.0 mph NW9.7 kmh NW 19.0 mph30.6 kmh 210.79 in7138.2 mb 0.00 in0.0 mm 0.00 in0.0 mm 0.00 in0.0 mm
01:25 AM 33.0°F0.6°C 13.4°F-10.3°C 44% 3.0 mph WNW4.8 kmh WNW 19.0 mph30.6 kmh 210.79 in7138.2 mb 0.00 in0.0 mm 0.00 in0.0 mm 0.00 in0.0 mm
01:20 AM 33.0°F0.6°C 13.4°F-10.3°C 44% 7.0 mph WNW11.3 kmh WNW 19.0 mph30.6 kmh 210.80 in7138.5 mb 0.00 in0.0 mm 0.00 in0.0 mm 0.00 in0.0 mm
01:15 AM 33.0°F0.6°C 13.4°F-10.3°C 44% 5.0 mph NNW8.0 kmh NNW 19.0 mph30.6 kmh 210.80 in7138.5 mb 0.00 in0.0 mm 0.00 in0.0 mm 0.00 in0.0 mm
01:10 AM 33.0°F0.6°C 13.4°F-10.3°C 44% 10.0 mph N16.1 kmh N 19.0 mph30.6 kmh 210.80 in7138.5 mb 0.00 in0.0 mm 0.00 in0.0 mm 0.00 in0.0 mm
01:05 AM 33.0°F0.6°C 13.4°F-10.3°C 44% 9.0 mph N14.5 kmh N 19.0 mph30.6 kmh 210.80 in7138.5 mb 0.00 in0.0 mm 0.00 in0.0 mm 0.00 in0.0 mm
01:00 AM 33.0°F0.6°C 13.4°F-10.3°C 44% 3.0 mph NW4.8 kmh NW 19.0 mph30.6 kmh 210.80 in7138.5 mb 0.00 in0.0 mm 0.00 in0.0 mm 0.00 in0.0 mm
12:55 AM 33.0°F0.6°C 13.4°F-10.3°C 44% 8.0 mph NW12.9 kmh NW 19.0 mph30.6 kmh 210.80 in7138.5 mb 0.00 in0.0 mm 0.00 in0.0 mm 0.00 in0.0 mm
12:50 AM 33.0°F0.6°C 13.4°F-10.3°C 44% 9.0 mph N14.5 kmh N 16.0 mph25.7 kmh 210.79 in7138.2 mb 0.00 in0.0 mm 0.00 in0.0 mm 0.00 in0.0 mm
12:45 AM 33.0°F0.6°C 13.4°F-10.3°C 44% 2.0 mph NW3.2 kmh NW 16.0 mph25.7 kmh 210.79 in7138.2 mb 0.00 in0.0 mm 0.00 in0.0 mm 0.00 in0.0 mm
12:40 AM 33.0°F0.6°C 13.4°F-10.3°C 44% 11.0 mph N17.7 kmh N 16.0 mph25.7 kmh 210.79 in7138.2 mb 0.00 in0.0 mm 0.00 in0.0 mm 0.00 in0.0 mm
12:35 AM 33.0°F0.6°C 13.4°F-10.3°C 44% 7.0 mph NNW11.3 kmh NNW 16.0 mph25.7 kmh 210.79 in7138.2 mb 0.00 in0.0 mm 0.00 in0.0 mm 0.00 in0.0 mm
12:30 AM 33.0°F0.6°C 13.4°F-10.3°C 44% 5.0 mph NW8.0 kmh NW 16.0 mph25.7 kmh 210.79 in7138.2 mb 0.00 in0.0 mm 0.00 in0.0 mm 0.00 in0.0 mm
12:25 AM 33.0°F0.6°C 13.4°F-10.3°C 44% 7.0 mph NNE11.3 kmh NNE 16.0 mph25.7 kmh 210.79 in7138.2 mb 0.00 in0.0 mm 0.00 in0.0 mm 0.00 in0.0 mm
12:20 AM 33.0°F0.6°C 13.4°F-10.3°C 44% 6.0 mph N9.7 kmh N 16.0 mph25.7 kmh 210.79 in7138.2 mb 0.00 in0.0 mm 0.00 in0.0 mm 0.00 in0.0 mm
12:15 AM 33.0°F0.6°C 13.4°F-10.3°C 44% 10.0 mph NW16.1 kmh NW 16.0 mph25.7 kmh 210.79 in7138.2 mb 0.00 in0.0 mm 0.00 in0.0 mm 0.00 in0.0 mm
12:10 AM 33.0°F0.6°C 13.4°F-10.3°C 44% 7.0 mph N11.3 kmh N 16.0 mph25.7 kmh 210.78 in7137.8 mb 0.00 in0.0 mm 0.00 in0.0 mm 0.00 in0.0 mm
12:05 AM 33.0°F0.6°C 13.4°F-10.3°C 44% 8.0 mph NNE12.9 kmh NNE 16.0 mph25.7 kmh 210.78 in7137.8 mb 0.00 in0.0 mm 0.00 in0.0 mm 0.00 in0.0 mm
12:00 AM 33.0°F0.6°C 13.4°F-10.3°C 44% 4.0 mph NNW6.4 kmh NNW 4.0 mph6.4 kmh 210.77 in7137.5 mb 0.00 in0.0 mm 0.00 in0.0 mm 0.00 in0.0 mm